createdAt,value
2023-02-11T00:00:04.357Z,102367.22
2023-02-11T00:02:33.068Z,102360.34
2023-02-11T00:05:03.328Z,102363.34
2023-02-11T00:07:31.398Z,102349.81
2023-02-11T00:09:58.062Z,102357.13
2023-02-11T00:12:25.515Z,102361.03
2023-02-11T00:14:52.341Z,102362.47
2023-02-11T00:17:19.016Z,102364.97
2023-02-11T00:19:49.786Z,102372.06
2023-02-11T00:22:16.553Z,102368.47
2023-02-11T00:24:43.415Z,102364.25
2023-02-11T00:27:10.103Z,102363.41
2023-02-11T00:29:37.947Z,102371.31
2023-02-11T00:32:06.102Z,102371.50
2023-02-11T00:34:33.293Z,102373.78
2023-02-11T00:37:02.730Z,102366.13
2023-02-11T00:39:29.915Z,102354.91
2023-02-11T00:41:57.335Z,102352.97
2023-02-11T00:44:24.457Z,102346.22
2023-02-11T00:46:51.121Z,102336.28
2023-02-11T00:49:17.951Z,102338.06
2023-02-11T00:51:44.709Z,102326.09
2023-02-11T00:54:11.844Z,102318.94
2023-02-11T00:56:39.231Z,102317.38
2023-02-11T00:59:05.885Z,102314.94
2023-02-11T01:01:32.754Z,102316.44
2023-02-11T01:03:59.855Z,102321.19
2023-02-11T01:06:26.535Z,102320.84
2023-02-11T01:08:53.436Z,102307.63
2023-02-11T01:11:21.831Z,102303.28
2023-02-11T01:13:49.385Z,102292.16
2023-02-11T01:16:16.794Z,102299.16
2023-02-11T01:18:45.285Z,102291.13
2023-02-11T01:21:11.996Z,102284.28
2023-02-11T01:23:38.742Z,102280.81
2023-02-11T01:26:06.085Z,102278.13
2023-02-11T01:28:33.151Z,102280.09
2023-02-11T01:31:01.746Z,102268.00
2023-02-11T01:33:28.788Z,102281.50
2023-02-11T01:35:55.621Z,102280.28
2023-02-11T01:38:26.406Z,102269.81
2023-02-11T01:40:55.906Z,102270.72
2023-02-11T01:43:23.805Z,102253.66
2023-02-11T01:46:17.516Z,102259.81
2023-02-11T01:48:47.792Z,102259.25
2023-02-11T01:51:23.968Z,102258.25
2023-02-11T01:54:09.958Z,102253.63
2023-02-11T01:57:01.092Z,102243.19
2023-02-11T01:59:34.508Z,102240.63
2023-02-11T02:02:08.346Z,102239.72
2023-02-11T02:04:44.075Z,102238.53
2023-02-11T02:07:17.392Z,102237.72
2023-02-11T02:09:51.568Z,102244.63
2023-02-11T02:12:18.364Z,102251.88
2023-02-11T02:14:45.011Z,102239.03
2023-02-11T02:17:26.361Z,102237.16
2023-02-11T02:20:09.060Z,102237.00
2023-02-11T02:23:13.060Z,102231.69
2023-02-11T02:26:03.940Z,102232.06
2023-02-11T02:28:48.805Z,102212.88
2023-02-11T02:31:37.048Z,102226.13
2023-02-11T02:34:21.761Z,102218.38
2023-02-11T02:37:01.058Z,102225.44
2023-02-11T02:39:36.134Z,102219.97
2023-02-11T02:42:03.714Z,102218.28
2023-02-11T02:44:30.854Z,102220.72
2023-02-11T02:46:57.901Z,102223.88
2023-02-11T02:49:24.597Z,102222.56
2023-02-11T02:51:57.276Z,102224.22
2023-02-11T02:54:45.656Z,102237.75
2023-02-11T02:57:57.454Z,102233.16
2023-02-11T03:00:27.671Z,102226.81
2023-02-11T03:03:31.860Z,102225.31
2023-02-11T03:06:08.036Z,102218.47
2023-02-11T03:08:41.395Z,102211.41
2023-02-11T03:11:10.442Z,102213.41
2023-02-11T03:13:39.385Z,102206.56
2023-02-11T03:16:15.240Z,102212.41
2023-02-11T03:18:46.688Z,102205.94
2023-02-11T03:21:17.374Z,102209.44
2023-02-11T03:23:53.999Z,102219.63
2023-02-11T03:26:30.721Z,102210.88
2023-02-11T03:29:23.481Z,102202.50
2023-02-11T03:32:03.849Z,102208.00
2023-02-11T03:34:33.351Z,102191.03
2023-02-11T03:37:06.534Z,102191.94
2023-02-11T03:40:10.175Z,102196.97
2023-02-11T03:42:43.414Z,102183.59
2023-02-11T03:45:15.606Z,102176.94
2023-02-11T03:47:47.430Z,102186.09
2023-02-11T03:50:16.578Z,102181.72
2023-02-11T03:52:45.268Z,102171.34
2023-02-11T03:55:16.892Z,102170.53
2023-02-11T03:57:43.887Z,102168.91
2023-02-11T04:00:11.578Z,102175.00
2023-02-11T04:02:39.639Z,102172.22
2023-02-11T04:05:08.460Z,102175.69
2023-02-11T04:07:35.270Z,102181.56
2023-02-11T04:10:02.246Z,102183.38
2023-02-11T04:12:28.923Z,102193.00
2023-02-11T04:14:55.629Z,102190.44
2023-02-11T04:17:22.252Z,102197.13
2023-02-11T04:19:48.904Z,102199.47
2023-02-11T04:22:15.627Z,102201.34
2023-02-11T04:24:44.028Z,102194.03
2023-02-11T04:27:10.723Z,102191.69
2023-02-11T04:29:37.465Z,102200.31
2023-02-11T04:32:04.363Z,102190.75
2023-02-11T04:34:31.222Z,102189.94
2023-02-11T04:36:57.912Z,102192.59
2023-02-11T04:39:24.592Z,102189.56
2023-02-11T04:41:51.388Z,102193.72
2023-02-11T04:44:18.095Z,102174.78
2023-02-11T04:46:44.839Z,102184.88
2023-02-11T04:49:15.873Z,102192.38
2023-02-11T04:51:46.009Z,102193.59
2023-02-11T04:54:14.321Z,102193.09
2023-02-11T04:56:40.940Z,102197.75
2023-02-11T04:59:07.624Z,102197.03
2023-02-11T05:01:34.341Z,102190.81
2023-02-11T05:04:01.100Z,102200.31
2023-02-11T05:06:27.830Z,102199.63
2023-02-11T05:08:54.547Z,102194.56
2023-02-11T05:11:23.398Z,102200.53
2023-02-11T05:13:50.195Z,102194.78
2023-02-11T05:16:18.070Z,102197.22
2023-02-11T05:18:45.854Z,102192.63
2023-02-11T05:21:15.985Z,102195.72
2023-02-11T05:23:43.223Z,102184.53
2023-02-11T05:26:10.211Z,102188.50
2023-02-11T05:28:37.118Z,102188.66
2023-02-11T05:31:04.591Z,102188.00
2023-02-11T05:33:31.331Z,102174.09
2023-02-11T05:36:03.346Z,102177.63
2023-02-11T05:38:30.015Z,102170.84
2023-02-11T05:40:56.734Z,102158.34
2023-02-11T05:43:23.363Z,102161.78
2023-02-11T05:45:50.510Z,102146.69
2023-02-11T05:48:17.949Z,102154.91
2023-02-11T05:50:45.222Z,102155.25
2023-02-11T05:53:12.180Z,102153.28
2023-02-11T05:55:38.978Z,102154.03
2023-02-11T05:58:06.789Z,102153.81
2023-02-11T06:00:34.446Z,102151.09
2023-02-11T06:03:01.486Z,102150.94
2023-02-11T06:05:28.136Z,102142.06
2023-02-11T06:07:54.791Z,102135.66
2023-02-11T06:10:21.719Z,102139.09
2023-02-11T06:12:48.427Z,102133.19
2023-02-11T06:15:15.125Z,102131.44
2023-02-11T06:17:41.771Z,102136.63
2023-02-11T06:20:10.616Z,102147.06
2023-02-11T06:22:37.920Z,102150.16
2023-02-11T06:25:04.841Z,102162.22
2023-02-11T06:27:31.500Z,102165.06
2023-02-11T06:29:58.134Z,102169.31
2023-02-11T06:32:42.821Z,102172.22
2023-02-11T06:35:12.047Z,102173.22
2023-02-11T06:37:39.994Z,102179.50
2023-02-11T06:40:07.266Z,102178.41
2023-02-11T06:42:34.602Z,102180.16
2023-02-11T06:45:01.297Z,102180.66
2023-02-11T06:47:28.010Z,102188.53
2023-02-11T06:49:54.653Z,102191.81
2023-02-11T06:52:21.334Z,102207.38
2023-02-11T06:54:47.994Z,102200.84
2023-02-11T06:57:14.701Z,102197.34
2023-02-11T06:59:41.798Z,102200.63
2023-02-11T07:02:11.553Z,102213.09
2023-02-11T07:04:38.294Z,102211.13
2023-02-11T07:07:05.026Z,102211.34
2023-02-11T07:09:31.780Z,102216.16
2023-02-11T07:11:58.457Z,102202.59
2023-02-11T07:14:25.563Z,102225.03
2023-02-11T07:16:52.229Z,102225.88
2023-02-11T07:19:18.841Z,102223.44
2023-02-11T07:21:45.460Z,102212.88
2023-02-11T07:24:13.307Z,102213.56
2023-02-11T07:26:40.741Z,102208.72
2023-02-11T07:29:07.378Z,102210.94
2023-02-11T07:31:34.260Z,102218.69
2023-02-11T07:34:01.901Z,102211.03
2023-02-11T07:36:30.557Z,102210.50
2023-02-11T07:38:57.834Z,102220.00
2023-02-11T07:41:25.313Z,102234.50
2023-02-11T07:43:52.740Z,102239.16
2023-02-11T07:46:26.241Z,102254.34
2023-02-11T07:48:53.908Z,102268.16
2023-02-11T07:51:29.424Z,102261.81
2023-02-11T07:53:57.989Z,102273.34
2023-02-11T07:56:24.757Z,102261.66
2023-02-11T07:58:51.703Z,102258.84
2023-02-11T08:01:25.462Z,102250.56
2023-02-11T08:03:52.962Z,102269.22
2023-02-11T08:06:21.608Z,102262.28
2023-02-11T08:08:48.699Z,102269.59
2023-02-11T08:11:17.251Z,102275.69
2023-02-11T08:13:44.702Z,102276.22
2023-02-11T08:16:26.848Z,102276.56
2023-02-11T08:18:55.674Z,102281.34
2023-02-11T08:21:22.391Z,102279.47
2023-02-11T08:23:49.902Z,102290.09
2023-02-11T08:26:28.740Z,102295.09
2023-02-11T08:28:56.938Z,102300.59
2023-02-11T08:31:26.465Z,102302.16
2023-02-11T08:33:57.854Z,102302.38
2023-02-11T08:36:27.190Z,102302.03
2023-02-11T08:39:15.865Z,102308.78
2023-02-11T08:41:45.778Z,102319.72
2023-02-11T08:44:13.269Z,102326.41
2023-02-11T08:46:40.329Z,102316.88
2023-02-11T08:49:06.952Z,102325.59
2023-02-11T08:51:33.647Z,102317.59
2023-02-11T08:54:01.284Z,102322.00
2023-02-11T08:56:28.538Z,102308.69
2023-02-11T08:58:57.747Z,102310.84
2023-02-11T09:01:27.472Z,102297.47
2023-02-11T09:03:54.721Z,102300.41
2023-02-11T09:06:22.627Z,102299.47
2023-02-11T09:08:51.615Z,102286.38
2023-02-11T09:11:21.475Z,102297.78
2023-02-11T09:13:48.164Z,102296.66
2023-02-11T09:16:23.833Z,102298.56
2023-02-11T09:18:50.942Z,102318.03
2023-02-11T09:21:18.343Z,102321.16
2023-02-11T09:23:47.656Z,102343.09
2023-02-11T09:26:20.206Z,102344.28
2023-02-11T09:28:47.879Z,102351.63
2023-02-11T09:31:17.506Z,102340.94
2023-02-11T09:33:49.147Z,102340.41
2023-02-11T09:36:18.924Z,102324.84
2023-02-11T09:38:45.700Z,102318.84
2023-02-11T09:41:35.239Z,102325.38
2023-02-11T09:44:06.417Z,102323.88
2023-02-11T09:46:37.574Z,102328.22
2023-02-11T09:49:06.064Z,102332.69
2023-02-11T09:51:44.075Z,102332.41
2023-02-11T09:54:21.702Z,102337.47
2023-02-11T09:56:48.385Z,102344.94
2023-02-11T09:59:16.613Z,102347.53
2023-02-11T10:01:59.024Z,102342.03
2023-02-11T10:04:37.692Z,102359.53
2023-02-11T10:07:25.252Z,102356.72
2023-02-11T10:10:09.641Z,102366.69
2023-02-11T10:13:05.604Z,102359.38
2023-02-11T10:15:44.307Z,102366.66
2023-02-11T10:18:38.816Z,102368.97
2023-02-11T10:21:37.437Z,102365.56
2023-02-11T10:24:12.375Z,102375.00
2023-02-11T10:26:40.745Z,102379.97
2023-02-11T10:29:29.003Z,102376.97
2023-02-11T10:31:58.332Z,102383.66
2023-02-11T10:34:25.155Z,102366.84
2023-02-11T10:36:51.837Z,102352.59
2023-02-11T10:39:19.788Z,102357.50
2023-02-11T10:41:52.335Z,102341.22
2023-02-11T10:44:31.007Z,102349.69
2023-02-11T10:47:02.170Z,102369.59
2023-02-11T10:49:43.891Z,102367.63
2023-02-11T10:52:14.380Z,102370.56
2023-02-11T10:54:41.019Z,102372.41
2023-02-11T10:57:20.710Z,102360.44
2023-02-11T10:59:47.976Z,102367.66
2023-02-11T11:02:25.284Z,102347.66
2023-02-11T11:04:57.631Z,102354.91
2023-02-11T11:07:27.966Z,102352.91
2023-02-11T11:10:02.820Z,102351.78
2023-02-11T11:12:40.302Z,102355.41
2023-02-11T11:15:10.470Z,102361.72
2023-02-11T11:17:38.171Z,102364.25
2023-02-11T11:20:33.551Z,102371.16
2023-02-11T11:23:22.730Z,102362.63
2023-02-11T11:26:27.012Z,102357.34
2023-02-11T11:29:16.304Z,102356.22
2023-02-11T11:31:57.203Z,102353.97
2023-02-11T11:34:31.547Z,102368.28
2023-02-11T11:37:32.896Z,102376.00
2023-02-11T11:40:12.817Z,102388.72
2023-02-11T11:42:45.898Z,102396.13
2023-02-11T11:45:15.903Z,102400.19
2023-02-11T11:47:57.444Z,102408.13
2023-02-11T11:50:47.558Z,102403.53
2023-02-11T11:53:24.980Z,102404.03
2023-02-11T11:56:05.354Z,102395.84
2023-02-11T11:58:38.327Z,102394.13
2023-02-11T12:01:30.326Z,102405.59
2023-02-11T12:04:03.777Z,102408.78
2023-02-11T12:06:41.540Z,102415.28
2023-02-11T12:09:23.356Z,102421.34
2023-02-11T12:12:05.788Z,102430.56
2023-02-11T12:14:54.663Z,102430.88
2023-02-11T12:17:54.543Z,102418.44
2023-02-11T12:20:35.884Z,102422.13
2023-02-11T12:23:10.842Z,102415.59
2023-02-11T12:25:52.584Z,102416.50
2023-02-11T12:28:40.501Z,102401.81
2023-02-11T12:31:14.628Z,102398.78
2023-02-11T12:34:19.282Z,102390.94
2023-02-11T12:36:54.526Z,102404.13
2023-02-11T12:40:04.877Z,102400.56
2023-02-11T12:43:20.431Z,102406.38
2023-02-11T12:46:09.735Z,102397.78
2023-02-11T12:48:58.341Z,102407.84
2023-02-11T12:51:46.362Z,102405.16
2023-02-11T12:54:37.568Z,102407.31
2023-02-11T12:57:54.998Z,102412.25
2023-02-11T13:00:41.203Z,102407.91
2023-02-11T13:03:43.166Z,102408.59
2023-02-11T13:06:21.584Z,102413.66
2023-02-11T13:09:05.227Z,102410.69
2023-02-11T13:11:48.947Z,102401.28
2023-02-11T13:14:31.170Z,102402.16
2023-02-11T13:17:21.060Z,102381.81
2023-02-11T13:20:09.395Z,102397.53
2023-02-11T13:22:51.806Z,102402.03
2023-02-11T13:25:32.061Z,102406.53
2023-02-11T13:28:20.631Z,102404.50
2023-02-11T13:30:52.211Z,102416.66
2023-02-11T13:33:49.614Z,102405.41
2023-02-11T13:36:21.815Z,102400.00
2023-02-11T13:38:58.807Z,102400.66
2023-02-11T13:41:39.496Z,102408.41
2023-02-11T13:44:22.107Z,102406.25
2023-02-11T13:46:59.693Z,102416.16
2023-02-11T13:49:31.918Z,102421.09
2023-02-11T13:52:00.615Z,102428.09
2023-02-11T13:54:36.039Z,102424.84
2023-02-11T13:57:20.827Z,102433.19
2023-02-11T13:59:49.333Z,102431.94
2023-02-11T14:02:51.630Z,102440.56
2023-02-11T14:05:36.857Z,102444.25
2023-02-11T14:08:28.153Z,102441.50
2023-02-11T14:10:56.863Z,102440.47
2023-02-11T14:13:31.730Z,102451.78
2023-02-11T14:16:35.353Z,102443.88
2023-02-11T14:19:04.282Z,102455.03
2023-02-11T14:21:35.838Z,102457.28
2023-02-11T14:24:02.545Z,102465.97
2023-02-11T14:26:42.372Z,102466.75
2023-02-11T14:29:15.102Z,102475.78
2023-02-11T14:32:15.069Z,102479.53
2023-02-11T14:34:50.861Z,102481.09
2023-02-11T14:37:59.449Z,102485.75
2023-02-11T14:40:26.078Z,102493.47
2023-02-11T14:42:55.161Z,102481.53
2023-02-11T14:45:28.035Z,102500.09
2023-02-11T14:48:08.188Z,102514.59
2023-02-11T14:50:44.962Z,102515.94
2023-02-11T14:53:17.920Z,102523.16
2023-02-11T14:55:48.450Z,102513.13
2023-02-11T14:58:25.814Z,102518.31
2023-02-11T15:01:02.983Z,102522.84
2023-02-11T15:03:48.736Z,102534.88
2023-02-11T15:06:19.591Z,102537.22
2023-02-11T15:08:53.428Z,102529.56
2023-02-11T15:11:24.189Z,102538.41
2023-02-11T15:13:55.011Z,102532.50
2023-02-11T15:16:25.556Z,102540.22
2023-02-11T15:18:56.795Z,102537.88
2023-02-11T15:21:26.667Z,102532.06
2023-02-11T15:24:02.092Z,102544.69
2023-02-11T15:26:30.302Z,102538.75
2023-02-11T15:28:56.925Z,102549.94
2023-02-11T15:31:26.017Z,102537.41
2023-02-11T15:33:56.151Z,102536.72
2023-02-11T15:36:28.815Z,102555.94
2023-02-11T15:39:18.482Z,102555.56
2023-02-11T15:41:45.494Z,102554.34
2023-02-11T15:44:32.372Z,102539.06
2023-02-11T15:46:59.326Z,102545.88
2023-02-11T15:49:26.511Z,102550.38
2023-02-11T15:51:56.927Z,102561.25
2023-02-11T15:54:31.574Z,102576.69
2023-02-11T15:57:07.967Z,102582.06
2023-02-11T15:59:39.097Z,102576.81
2023-02-11T16:02:26.645Z,102585.41
2023-02-11T16:05:03.821Z,102584.75
2023-02-11T16:07:46.348Z,102588.81
2023-02-11T16:10:16.918Z,102591.59
2023-02-11T16:12:53.855Z,102597.75
2023-02-11T16:15:30.303Z,102600.91
2023-02-11T16:17:57.779Z,102605.81
2023-02-11T16:20:24.715Z,102604.69
2023-02-11T16:22:51.623Z,102608.78
2023-02-11T16:25:23.728Z,102609.63
2023-02-11T16:27:54.361Z,102609.53
2023-02-11T16:30:33.453Z,102607.03
2023-02-11T16:33:00.181Z,102611.66
2023-02-11T16:35:26.782Z,102621.06
2023-02-11T16:37:54.903Z,102619.22
2023-02-11T16:40:23.572Z,102625.44
2023-02-11T16:42:52.474Z,102636.78
2023-02-11T16:45:19.281Z,102641.28
2023-02-11T16:47:46.526Z,102645.84
2023-02-11T16:50:22.233Z,102648.84
2023-02-11T16:52:49.222Z,102645.63
2023-02-11T16:55:15.972Z,102648.47
2023-02-11T16:57:42.691Z,102651.44
2023-02-11T17:00:11.224Z,102666.53
2023-02-11T17:02:38.869Z,102662.16
2023-02-11T17:05:08.087Z,102659.53
2023-02-11T17:07:35.368Z,102660.16
2023-02-11T17:10:02.104Z,102662.03
2023-02-11T17:12:31.021Z,102664.53
2023-02-11T17:14:57.694Z,102670.94
2023-02-11T17:17:24.364Z,102676.75
2023-02-11T17:19:51.416Z,102682.00
2023-02-11T17:22:18.698Z,102684.81
2023-02-11T17:24:45.549Z,102685.59
2023-02-11T17:27:15.202Z,102685.44
2023-02-11T17:29:43.195Z,102690.69
2023-02-11T17:32:09.904Z,102695.22
2023-02-11T17:34:36.668Z,102694.00
2023-02-11T17:37:08.945Z,102694.47
2023-02-11T17:39:36.635Z,102698.66
2023-02-11T17:42:04.246Z,102703.03
2023-02-11T17:44:30.945Z,102702.03
2023-02-11T17:46:57.660Z,102695.09
2023-02-11T17:49:24.558Z,102700.19
2023-02-11T17:51:51.240Z,102704.97
2023-02-11T17:54:19.288Z,102702.75
2023-02-11T17:56:48.407Z,102716.88
2023-02-11T17:59:16.943Z,102724.66
2023-02-11T18:01:43.930Z,102719.28
2023-02-11T18:04:14.641Z,102725.44
2023-02-11T18:06:41.413Z,102721.28
2023-02-11T18:09:08.358Z,102724.63
2023-02-11T18:11:36.690Z,102729.06
2023-02-11T18:14:04.866Z,102735.00
2023-02-11T18:16:34.420Z,102731.97
2023-02-11T18:19:01.466Z,102746.81
2023-02-11T18:21:28.258Z,102753.56
2023-02-11T18:23:56.925Z,102755.50
2023-02-11T18:26:26.286Z,102760.63
2023-02-11T18:28:53.225Z,102756.94
2023-02-11T18:31:20.148Z,102766.41
2023-02-11T18:33:47.905Z,102761.31
2023-02-11T18:36:15.779Z,102774.28
2023-02-11T18:38:44.232Z,102783.72
2023-02-11T18:41:11.818Z,102788.09
2023-02-11T18:43:40.009Z,102794.88
2023-02-11T18:46:09.970Z,102791.50
2023-02-11T18:48:37.189Z,102776.06
2023-02-11T18:51:13.017Z,102783.34
2023-02-11T18:53:39.707Z,102790.97
2023-02-11T18:56:18.612Z,102796.38
2023-02-11T18:58:45.272Z,102809.31
2023-02-11T19:01:11.949Z,102808.28
2023-02-11T19:03:38.714Z,102811.97
2023-02-11T19:06:06.189Z,102797.16
2023-02-11T19:08:32.971Z,102787.22
2023-02-11T19:10:59.718Z,102794.44
2023-02-11T19:13:29.077Z,102793.59
2023-02-11T19:15:55.817Z,102791.97
2023-02-11T19:18:22.508Z,102797.94
2023-02-11T19:20:49.170Z,102802.34
2023-02-11T19:23:15.950Z,102794.63
2023-02-11T19:25:47.482Z,102805.00
2023-02-11T19:28:16.732Z,102811.09
2023-02-11T19:30:43.496Z,102814.94
2023-02-11T19:33:10.674Z,102810.94
2023-02-11T19:35:37.337Z,102803.88
2023-02-11T19:38:05.602Z,102802.13
2023-02-11T19:40:32.908Z,102801.41
2023-02-11T19:42:59.618Z,102793.59
2023-02-11T19:45:27.045Z,102794.53
2023-02-11T19:47:57.612Z,102804.09
2023-02-11T19:50:25.266Z,102806.69
2023-02-11T19:52:51.959Z,102817.28
2023-02-11T19:55:18.781Z,102811.72
2023-02-11T19:57:45.482Z,102828.47
2023-02-11T20:00:12.775Z,102824.25
2023-02-11T20:02:40.441Z,102833.03
2023-02-11T20:05:07.608Z,102832.06
2023-02-11T20:07:34.837Z,102824.25
2023-02-11T20:10:01.578Z,102828.47
2023-02-11T20:12:28.317Z,102828.28
2023-02-11T20:14:54.989Z,102835.53
2023-02-11T20:17:21.671Z,102846.09
2023-02-11T20:19:48.590Z,102851.22
2023-02-11T20:22:15.378Z,102848.50
2023-02-11T20:24:42.097Z,102843.22
2023-02-11T20:27:11.385Z,102850.19
2023-02-11T20:29:38.955Z,102850.06
2023-02-11T20:32:07.149Z,102845.03
2023-02-11T20:34:34.370Z,102854.41
2023-02-11T20:37:02.966Z,102854.72
2023-02-11T20:39:29.964Z,102861.69
2023-02-11T20:41:57.589Z,102857.00
2023-02-11T20:44:24.604Z,102861.34
2023-02-11T20:46:53.809Z,102851.69
2023-02-11T20:49:23.194Z,102846.41
2023-02-11T20:51:51.272Z,102843.56
2023-02-11T20:54:19.954Z,102850.19
2023-02-11T20:56:48.215Z,102856.47
2023-02-11T20:59:16.594Z,102858.22
2023-02-11T21:01:46.598Z,102860.00
2023-02-11T21:04:17.076Z,102849.31
2023-02-11T21:06:47.373Z,102850.94
2023-02-11T21:09:19.887Z,102861.53
2023-02-11T21:11:47.556Z,102861.44
2023-02-11T21:14:14.779Z,102866.75
2023-02-11T21:16:41.665Z,102872.13
2023-02-11T21:19:08.431Z,102874.72
2023-02-11T21:21:36.598Z,102878.81
2023-02-11T21:24:04.258Z,102885.75
2023-02-11T21:26:30.926Z,102891.78
2023-02-11T21:28:57.742Z,102893.25
2023-02-11T21:31:27.435Z,102889.22
2023-02-11T21:33:55.440Z,102897.00
2023-02-11T21:36:23.558Z,102897.81
2023-02-11T21:38:50.588Z,102895.22
2023-02-11T21:41:18.486Z,102914.53
2023-02-11T21:43:45.444Z,102912.78
2023-02-11T21:46:14.544Z,102916.88
2023-02-11T21:48:41.697Z,102917.19
2023-02-11T21:51:23.351Z,102924.38
2023-02-11T21:53:55.653Z,102920.63
2023-02-11T21:56:23.411Z,102934.69
2023-02-11T21:58:53.123Z,102926.91
2023-02-11T22:01:25.920Z,102938.78
2023-02-11T22:03:52.816Z,102939.56
2023-02-11T22:06:23.295Z,102943.06
2023-02-11T22:08:50.618Z,102947.72
2023-02-11T22:11:17.395Z,102941.69
2023-02-11T22:13:44.106Z,102950.13
2023-02-11T22:16:13.753Z,102945.16
2023-02-11T22:18:41.045Z,102950.31
2023-02-11T22:21:13.579Z,102958.94
2023-02-11T22:23:40.830Z,102967.84
2023-02-11T22:26:14.071Z,102964.25
2023-02-11T22:28:41.248Z,102966.66
2023-02-11T22:31:11.968Z,102959.97
2023-02-11T22:33:41.463Z,102964.31
2023-02-11T22:36:16.050Z,102971.25
2023-02-11T22:38:42.718Z,102964.09
2023-02-11T22:41:10.987Z,102971.22
2023-02-11T22:43:38.503Z,102981.56
2023-02-11T22:46:07.497Z,102977.25
2023-02-11T22:48:35.495Z,102982.66
2023-02-11T22:51:15.039Z,102994.09
2023-02-11T22:53:43.701Z,102987.06
2023-02-11T22:56:15.365Z,102989.53
2023-02-11T22:58:43.224Z,102986.84
2023-02-11T23:01:10.858Z,103000.00
2023-02-11T23:03:37.524Z,102998.25
2023-02-11T23:06:04.845Z,103000.88
2023-02-11T23:08:32.215Z,102997.41
2023-02-11T23:11:17.114Z,102988.59
2023-02-11T23:13:44.887Z,102989.41
2023-02-11T23:16:15.527Z,102995.63
2023-02-11T23:18:44.162Z,102999.88
2023-02-11T23:21:15.937Z,103011.97
2023-02-11T23:23:43.018Z,103004.34
2023-02-11T23:26:14.398Z,103011.28
2023-02-11T23:28:41.735Z,103013.84
2023-02-11T23:31:23.547Z,103015.53
2023-02-11T23:33:50.406Z,103029.56
2023-02-11T23:36:19.162Z,103021.78
2023-02-11T23:38:46.630Z,103032.97
2023-02-11T23:41:14.064Z,103033.75
2023-02-11T23:43:41.105Z,103031.25
2023-02-11T23:46:08.482Z,103027.81
2023-02-11T23:48:37.677Z,103032.00
2023-02-11T23:51:04.657Z,103037.41
2023-02-11T23:53:31.296Z,103026.84
2023-02-11T23:55:58.026Z,103030.47
2023-02-11T23:58:24.684Z,103036.47
